createdAt,value
2022-09-30T00:00:45.139Z,98.75
2022-09-30T00:01:45.185Z,98.75
2022-09-30T00:02:45.180Z,98.44
2022-09-30T00:03:45.089Z,98.44
2022-09-30T00:04:45.085Z,98.75
2022-09-30T00:05:45.131Z,98.49
2022-09-30T00:06:45.065Z,98.60
2022-09-30T00:07:45.045Z,98.80
2022-09-30T00:08:45.026Z,98.70
2022-09-30T00:09:45.100Z,98.91
2022-09-30T00:10:45.005Z,98.91
2022-09-30T00:11:45.011Z,98.80
2022-09-30T00:12:45.065Z,98.70
2022-09-30T00:13:44.980Z,98.70
2022-09-30T00:14:44.981Z,98.60
2022-09-30T00:15:44.958Z,98.60
2022-09-30T00:16:45.043Z,98.60
2022-09-30T00:17:44.923Z,98.49
2022-09-30T00:18:44.958Z,98.60
2022-09-30T00:19:44.917Z,98.60
2022-09-30T00:20:44.909Z,99.01
2022-09-30T00:21:44.900Z,99.11
2022-09-30T00:22:44.883Z,99.22
2022-09-30T00:23:44.885Z,99.01
2022-09-30T00:24:44.855Z,99.01
2022-09-30T00:25:44.840Z,99.11
2022-09-30T00:26:44.845Z,98.80
2022-09-30T00:27:44.873Z,98.91
2022-09-30T00:28:44.812Z,99.01
2022-09-30T00:29:44.789Z,99.22
2022-09-30T00:30:44.800Z,99.11
2022-09-30T00:31:44.904Z,99.22
2022-09-30T00:32:44.772Z,99.11
2022-09-30T00:33:44.784Z,99.11
2022-09-30T00:34:44.757Z,99.11
2022-09-30T00:35:44.800Z,99.11
2022-09-30T00:36:44.760Z,99.11
2022-09-30T00:37:44.703Z,99.11
2022-09-30T00:38:44.700Z,98.91
2022-09-30T00:39:44.690Z,99.11
2022-09-30T00:40:44.674Z,99.11
2022-09-30T00:41:44.688Z,99.32
2022-09-30T00:42:44.658Z,99.32
2022-09-30T00:43:44.635Z,99.32
2022-09-30T00:44:44.641Z,99.22
2022-09-30T00:45:44.694Z,99.22
2022-09-30T00:46:45.175Z,99.22
2022-09-30T00:47:44.589Z,99.11
2022-09-30T00:48:44.593Z,99.26
2022-09-30T00:49:44.571Z,99.37
2022-09-30T00:50:44.564Z,99.52
2022-09-30T00:51:44.583Z,99.63
2022-09-30T00:52:44.561Z,99.37
2022-09-30T00:53:44.525Z,99.26
2022-09-30T00:54:44.513Z,99.37
2022-09-30T00:55:44.500Z,99.68
2022-09-30T00:56:44.512Z,99.68
2022-09-30T00:57:44.488Z,99.68
2022-09-30T00:58:44.500Z,99.99
2022-09-30T00:59:44.462Z,99.99
2022-09-30T01:00:44.508Z,99.88
2022-09-30T01:01:44.510Z,99.99
2022-09-30T01:02:44.426Z,99.99
2022-09-30T01:03:44.421Z,99.99
2022-09-30T01:04:44.434Z,99.99
2022-09-30T01:05:44.401Z,99.99
2022-09-30T01:06:44.385Z,99.78
2022-09-30T01:07:44.372Z,99.78
2022-09-30T01:08:44.363Z,99.99
2022-09-30T01:09:44.453Z,99.99
2022-09-30T01:10:44.343Z,99.99
2022-09-30T01:11:44.329Z,99.99
2022-09-30T01:12:44.307Z,99.99
2022-09-30T01:13:44.306Z,99.99
2022-09-30T01:14:44.327Z,99.99
2022-09-30T01:15:44.287Z,99.99
2022-09-30T01:16:44.284Z,99.99
2022-09-30T01:17:44.273Z,99.99
2022-09-30T01:18:44.273Z,99.78
2022-09-30T01:19:44.232Z,99.68
2022-09-30T01:20:44.223Z,99.78
2022-09-30T01:21:44.260Z,99.78
2022-09-30T01:22:44.207Z,99.78
2022-09-30T01:23:44.190Z,99.88
2022-09-30T01:24:44.177Z,99.99
2022-09-30T01:25:44.180Z,99.99
2022-09-30T01:26:44.155Z,99.99
2022-09-30T01:27:44.170Z,99.99
2022-09-30T01:28:44.137Z,99.99
2022-09-30T01:29:44.140Z,99.99
2022-09-30T01:30:44.122Z,99.99
2022-09-30T01:31:44.211Z,99.99
2022-09-30T01:32:44.194Z,99.99
2022-09-30T01:33:44.083Z,99.99
2022-09-30T01:34:44.077Z,99.99
2022-09-30T01:35:44.068Z,99.99
2022-09-30T01:36:44.053Z,99.99
2022-09-30T01:37:44.081Z,99.99
2022-09-30T01:38:44.042Z,99.99
2022-09-30T01:39:44.039Z,99.99
2022-09-30T01:40:43.995Z,99.99
2022-09-30T01:41:44.027Z,99.99
2022-09-30T01:42:43.995Z,99.99
2022-09-30T01:43:43.972Z,99.99
2022-09-30T01:44:43.960Z,99.99
2022-09-30T01:45:43.942Z,99.99
2022-09-30T01:46:43.966Z,99.99
2022-09-30T01:47:43.940Z,99.99
2022-09-30T01:48:43.912Z,99.99
2022-09-30T01:49:43.892Z,99.99
2022-09-30T01:50:43.887Z,99.99
2022-09-30T01:51:43.869Z,99.88
2022-09-30T01:52:43.901Z,99.99
2022-09-30T01:53:43.876Z,99.99
2022-09-30T01:54:43.855Z,99.99
2022-09-30T01:55:43.831Z,99.99
2022-09-30T01:56:43.826Z,99.99
2022-09-30T01:57:43.802Z,99.99
2022-09-30T01:58:43.823Z,99.99
2022-09-30T01:59:43.787Z,99.99
2022-09-30T02:00:43.851Z,99.99
2022-09-30T02:01:43.837Z,99.99
2022-09-30T02:02:43.763Z,99.99
2022-09-30T02:03:43.747Z,99.99
2022-09-30T02:04:43.774Z,99.99
2022-09-30T02:05:43.714Z,99.99
2022-09-30T02:06:43.730Z,99.99
2022-09-30T02:07:43.700Z,99.99
2022-09-30T02:08:43.693Z,99.99
2022-09-30T02:09:43.774Z,99.99
2022-09-30T02:10:43.671Z,99.99
2022-09-30T02:11:43.658Z,99.99
2022-09-30T02:12:43.646Z,99.99
2022-09-30T02:13:43.640Z,99.99
2022-09-30T02:14:43.638Z,99.99
2022-09-30T02:15:43.627Z,99.99
2022-09-30T02:16:43.593Z,99.99
2022-09-30T02:17:43.585Z,99.99
2022-09-30T02:18:43.565Z,99.99
2022-09-30T02:19:43.585Z,99.99
2022-09-30T02:20:43.553Z,99.99
2022-09-30T02:21:43.545Z,99.99
2022-09-30T02:22:43.530Z,99.99
2022-09-30T02:23:43.518Z,99.99
2022-09-30T02:24:43.560Z,99.99
2022-09-30T02:25:43.487Z,99.99
2022-09-30T02:26:43.503Z,99.99
2022-09-30T02:27:43.475Z,99.99
2022-09-30T02:28:43.453Z,99.99
2022-09-30T02:29:43.451Z,99.99
2022-09-30T02:30:43.462Z,99.99
2022-09-30T02:31:43.486Z,99.99
2022-09-30T02:32:43.452Z,99.99
2022-09-30T02:33:43.417Z,99.99
2022-09-30T02:34:43.409Z,99.99
2022-09-30T02:35:43.407Z,99.99
2022-09-30T02:36:43.383Z,99.99
2022-09-30T02:37:43.370Z,99.99
2022-09-30T02:38:43.364Z,99.99
2022-09-30T02:39:43.357Z,99.99
2022-09-30T02:40:43.343Z,99.99
2022-09-30T02:41:43.312Z,99.99
2022-09-30T02:42:43.309Z,99.99
2022-09-30T02:43:43.302Z,99.99
2022-09-30T02:44:43.367Z,99.99
2022-09-30T02:45:43.261Z,99.99
2022-09-30T02:46:43.409Z,99.82
2022-09-30T02:47:43.251Z,99.93
2022-09-30T02:48:43.243Z,99.82
2022-09-30T02:49:43.250Z,99.82
2022-09-30T02:50:43.244Z,99.93
2022-09-30T02:51:43.226Z,99.82
2022-09-30T02:52:43.189Z,99.62
2022-09-30T02:53:43.188Z,99.72
2022-09-30T02:54:43.164Z,99.82
2022-09-30T02:55:43.146Z,99.82
2022-09-30T02:56:43.213Z,99.82
2022-09-30T02:57:43.128Z,99.93
2022-09-30T02:58:43.125Z,99.93
2022-09-30T02:59:43.112Z,99.93
2022-09-30T03:00:43.164Z,99.99
2022-09-30T03:01:43.120Z,99.99
2022-09-30T03:02:43.089Z,99.99
2022-09-30T03:03:43.067Z,99.99
2022-09-30T03:04:43.094Z,99.99
2022-09-30T03:05:43.075Z,99.99
2022-09-30T03:06:43.041Z,99.82
2022-09-30T03:07:43.046Z,99.82
2022-09-30T03:08:43.015Z,99.82
2022-09-30T03:09:43.052Z,99.82
2022-09-30T03:10:43.021Z,99.82
2022-09-30T03:11:43.005Z,99.93
2022-09-30T03:12:42.982Z,99.93
2022-09-30T03:13:42.951Z,99.99
2022-09-30T03:14:42.963Z,99.99
2022-09-30T03:15:42.948Z,99.99
2022-09-30T03:16:43.059Z,99.99
2022-09-30T03:17:42.943Z,99.99
2022-09-30T03:18:42.909Z,99.99
2022-09-30T03:19:42.887Z,99.99
2022-09-30T03:20:42.897Z,99.99
2022-09-30T03:21:42.893Z,99.98
2022-09-30T03:22:42.850Z,99.99
2022-09-30T03:23:42.872Z,99.98
2022-09-30T03:24:42.826Z,99.77
2022-09-30T03:25:42.821Z,99.77
2022-09-30T03:26:42.842Z,99.66
2022-09-30T03:27:42.833Z,99.87
2022-09-30T03:28:42.787Z,99.87
2022-09-30T03:29:42.797Z,99.98
2022-09-30T03:30:42.763Z,99.99
2022-09-30T03:31:42.819Z,99.87
2022-09-30T03:32:42.812Z,99.77
2022-09-30T03:33:42.730Z,99.98
2022-09-30T03:34:42.705Z,99.99
2022-09-30T03:35:42.707Z,99.99
2022-09-30T03:36:42.707Z,99.99
2022-09-30T03:37:42.694Z,99.87
2022-09-30T03:38:42.759Z,99.99
2022-09-30T03:39:42.658Z,99.99
2022-09-30T03:40:42.651Z,99.99
2022-09-30T03:41:42.659Z,99.99
2022-09-30T03:42:42.617Z,99.99
2022-09-30T03:43:42.636Z,99.99
2022-09-30T03:44:42.613Z,99.99
2022-09-30T03:45:42.613Z,99.99
2022-09-30T03:46:42.611Z,99.98
2022-09-30T03:47:42.595Z,99.99
2022-09-30T03:48:42.589Z,99.99
2022-09-30T03:49:42.552Z,99.99
2022-09-30T03:50:43.081Z,99.99
2022-09-30T03:51:42.517Z,99.99
2022-09-30T03:52:42.514Z,99.99
2022-09-30T03:53:42.536Z,99.99
2022-09-30T03:54:42.500Z,99.99
2022-09-30T03:55:42.481Z,99.99
2022-09-30T03:56:42.474Z,99.99
2022-09-30T03:57:42.476Z,99.99
2022-09-30T03:58:42.438Z,99.99
2022-09-30T03:59:42.484Z,99.98
2022-09-30T04:00:42.448Z,99.66
2022-09-30T04:01:42.473Z,99.56
2022-09-30T04:02:42.423Z,99.56
2022-09-30T04:03:42.393Z,99.77
2022-09-30T04:04:42.388Z,99.66
2022-09-30T04:05:42.384Z,99.56
2022-09-30T04:06:42.352Z,99.56
2022-09-30T04:07:42.360Z,99.56
2022-09-30T04:08:42.338Z,99.77
2022-09-30T04:09:42.397Z,99.87
2022-09-30T04:10:42.324Z,99.77
2022-09-30T04:11:42.311Z,99.87
2022-09-30T04:12:42.312Z,99.87
2022-09-30T04:13:42.309Z,99.87
2022-09-30T04:14:42.264Z,99.87
2022-09-30T04:15:42.256Z,99.98
2022-09-30T04:16:42.351Z,99.77
2022-09-30T04:17:42.229Z,99.77
2022-09-30T04:18:42.301Z,99.77
2022-09-30T04:19:42.215Z,99.46
2022-09-30T04:20:42.203Z,99.35
2022-09-30T04:21:42.205Z,99.46
2022-09-30T04:22:42.177Z,99.56
2022-09-30T04:23:42.169Z,99.35
2022-09-30T04:24:42.160Z,99.35
2022-09-30T04:25:42.142Z,99.56
2022-09-30T04:26:42.124Z,99.46
2022-09-30T04:27:42.120Z,99.46
2022-09-30T04:28:42.117Z,99.46
2022-09-30T04:29:42.139Z,99.56
2022-09-30T04:30:42.084Z,99.35
2022-09-30T04:31:42.125Z,99.15
2022-09-30T04:32:42.094Z,99.35
2022-09-30T04:33:42.068Z,99.46
2022-09-30T04:34:42.044Z,99.56
2022-09-30T04:35:42.033Z,99.56
2022-09-30T04:36:42.035Z,99.35
2022-09-30T04:37:42.013Z,99.35
2022-09-30T04:38:42.012Z,99.35
2022-09-30T04:39:41.992Z,99.46
2022-09-30T04:40:41.977Z,99.35
2022-09-30T04:41:42.021Z,99.46
2022-09-30T04:42:41.969Z,99.82
2022-09-30T04:43:41.939Z,99.92
2022-09-30T04:44:41.930Z,99.82
2022-09-30T04:45:41.984Z,99.61
2022-09-30T04:46:41.908Z,99.61
2022-09-30T04:47:41.952Z,99.40
2022-09-30T04:48:41.920Z,99.40
2022-09-30T04:49:41.875Z,99.40
2022-09-30T04:50:41.862Z,99.71
2022-09-30T04:51:41.866Z,99.71
2022-09-30T04:52:41.842Z,99.51
2022-09-30T04:53:41.845Z,99.51
2022-09-30T04:54:41.830Z,99.61
2022-09-30T04:55:41.801Z,99.71
2022-09-30T04:56:41.802Z,99.77
2022-09-30T04:57:41.784Z,99.61
2022-09-30T04:58:41.791Z,99.61
2022-09-30T04:59:41.789Z,99.71
2022-09-30T05:00:41.816Z,99.61
2022-09-30T05:01:41.777Z,99.71
2022-09-30T05:02:41.737Z,99.99
2022-09-30T05:03:41.729Z,99.99
2022-09-30T05:04:42.670Z,99.99
2022-09-30T05:05:41.693Z,99.99
2022-09-30T05:06:41.698Z,99.99
2022-09-30T05:07:41.669Z,99.99
2022-09-30T05:08:44.833Z,99.99
2022-09-30T05:09:41.678Z,99.99
2022-09-30T05:10:41.706Z,99.98
2022-09-30T05:11:41.617Z,99.99
2022-09-30T05:12:41.608Z,99.99
2022-09-30T05:13:41.605Z,99.99
2022-09-30T05:14:41.584Z,99.99
2022-09-30T05:15:41.594Z,99.99
2022-09-30T05:16:41.638Z,99.99
2022-09-30T05:17:41.568Z,99.99
2022-09-30T05:18:41.552Z,99.99
2022-09-30T05:19:41.538Z,99.99
2022-09-30T05:20:41.606Z,99.99
2022-09-30T05:21:41.527Z,99.98
2022-09-30T05:22:41.509Z,99.66
2022-09-30T05:23:41.492Z,99.77
2022-09-30T05:24:41.494Z,99.87
2022-09-30T05:25:41.468Z,99.77
2022-09-30T05:26:41.489Z,99.56
2022-09-30T05:27:41.449Z,99.56
2022-09-30T05:28:41.477Z,99.87
2022-09-30T05:29:41.432Z,99.87
2022-09-30T05:30:41.414Z,99.77
2022-09-30T05:31:41.452Z,99.56
2022-09-30T05:32:41.414Z,99.35
2022-09-30T05:33:41.369Z,99.04
2022-09-30T05:34:41.378Z,98.94
2022-09-30T05:35:41.355Z,98.83
2022-09-30T05:36:41.409Z,98.83
2022-09-30T05:37:41.332Z,98.83
2022-09-30T05:38:41.333Z,98.73
2022-09-30T05:39:41.329Z,98.48
2022-09-30T05:40:41.289Z,98.79
2022-09-30T05:41:41.278Z,99.00
2022-09-30T05:42:41.271Z,99.00
2022-09-30T05:43:41.288Z,98.69
2022-09-30T05:44:41.260Z,98.38
2022-09-30T05:45:41.287Z,98.58
2022-09-30T05:46:41.321Z,98.69
2022-09-30T05:47:41.232Z,98.79
2022-09-30T05:48:41.244Z,98.79
2022-09-30T05:49:41.226Z,99.10
2022-09-30T05:50:41.185Z,98.38
2022-09-30T05:51:41.175Z,98.27
2022-09-30T05:52:41.169Z,98.69
2022-09-30T05:53:41.172Z,98.90
2022-09-30T05:54:41.140Z,99.10
2022-09-30T05:55:41.158Z,99.00
2022-09-30T05:56:41.114Z,99.10
2022-09-30T05:57:41.119Z,98.90
2022-09-30T05:58:41.103Z,98.90
2022-09-30T05:59:41.095Z,99.10
2022-09-30T06:00:41.111Z,98.90
2022-09-30T06:01:41.101Z,99.21
2022-09-30T06:02:41.144Z,99.31
2022-09-30T06:03:41.045Z,99.21
2022-09-30T06:04:41.027Z,98.79
2022-09-30T06:05:41.045Z,98.69
2022-09-30T06:06:41.009Z,98.79
2022-09-30T06:07:40.991Z,99.10
2022-09-30T06:08:41.017Z,99.00
2022-09-30T06:09:41.077Z,99.05
2022-09-30T06:10:40.965Z,98.54
2022-09-30T06:11:40.958Z,98.58
2022-09-30T06:12:40.972Z,98.43
2022-09-30T06:13:40.982Z,98.54
2022-09-30T06:14:40.942Z,98.54
2022-09-30T06:15:40.923Z,98.54
2022-09-30T06:16:41.107Z,98.43
2022-09-30T06:17:40.892Z,98.43
2022-09-30T06:18:40.870Z,98.43
2022-09-30T06:19:40.907Z,98.33
2022-09-30T06:20:40.849Z,98.74
2022-09-30T06:21:40.848Z,98.74
2022-09-30T06:22:40.828Z,98.43
2022-09-30T06:23:40.815Z,98.64
2022-09-30T06:24:40.831Z,98.74
2022-09-30T06:25:40.826Z,98.12
2022-09-30T06:26:40.801Z,98.02
2022-09-30T06:27:40.777Z,98.33
2022-09-30T06:28:40.787Z,97.91
2022-09-30T06:29:40.761Z,97.71
2022-09-30T06:30:40.743Z,97.91
2022-09-30T06:31:40.804Z,98.02
2022-09-30T06:32:40.706Z,98.12
2022-09-30T06:33:40.702Z,98.02
2022-09-30T06:34:40.738Z,97.50
2022-09-30T06:35:40.682Z,97.50
2022-09-30T06:36:40.685Z,97.71
2022-09-30T06:37:40.658Z,97.91
2022-09-30T06:38:40.663Z,97.60
2022-09-30T06:39:40.651Z,97.81
2022-09-30T06:40:40.621Z,98.08
2022-09-30T06:41:40.623Z,97.19
2022-09-30T06:42:40.604Z,97.29
2022-09-30T06:43:50.729Z,97.19
2022-09-30T06:44:50.608Z,96.98
2022-09-30T06:45:40.713Z,96.98
2022-09-30T06:46:52.586Z,97.35
2022-09-30T06:47:47.152Z,97.14
2022-09-30T06:48:40.624Z,96.83
2022-09-30T06:49:48.385Z,97.04
2022-09-30T06:50:41.724Z,97.14
2022-09-30T06:51:40.503Z,97.35
2022-09-30T06:52:40.484Z,97.25
2022-09-30T06:53:40.559Z,97.97
2022-09-30T06:54:40.467Z,97.14
2022-09-30T06:55:40.450Z,97.04
2022-09-30T06:56:40.451Z,97.25
2022-09-30T06:57:40.435Z,97.25
2022-09-30T06:58:40.420Z,96.62
2022-09-30T06:59:40.436Z,96.31
2022-09-30T07:00:40.459Z,97.14
2022-09-30T07:01:40.396Z,97.25
2022-09-30T07:02:40.389Z,97.25
2022-09-30T07:03:40.358Z,97.00
2022-09-30T07:04:40.386Z,96.27
2022-09-30T07:05:40.355Z,96.42
2022-09-30T07:06:40.338Z,96.69
2022-09-30T07:07:40.343Z,96.17
2022-09-30T07:08:40.305Z,96.79
2022-09-30T07:09:40.353Z,96.17
2022-09-30T07:10:40.283Z,96.17
2022-09-30T07:11:40.343Z,96.37
2022-09-30T07:12:40.258Z,96.37
2022-09-30T07:13:40.252Z,96.69
2022-09-30T07:14:40.265Z,96.17
2022-09-30T07:15:40.257Z,96.27
2022-09-30T07:16:40.304Z,96.89
2022-09-30T07:17:40.242Z,96.33
2022-09-30T07:18:40.199Z,96.02
2022-09-30T07:19:40.190Z,96.44
2022-09-30T07:20:40.188Z,96.02
2022-09-30T07:21:40.156Z,96.33
2022-09-30T07:22:40.146Z,96.54
2022-09-30T07:23:40.153Z,96.44
2022-09-30T07:24:40.131Z,95.29
2022-09-30T07:25:40.126Z,94.78
2022-09-30T07:26:40.165Z,95.15
2022-09-30T07:27:40.114Z,94.73
2022-09-30T07:28:40.097Z,95.15
2022-09-30T07:29:56.850Z,94.01
2022-09-30T07:30:40.073Z,94.18
2022-09-30T07:31:40.147Z,93.55
2022-09-30T07:32:40.032Z,91.28
2022-09-30T07:33:40.109Z,91.90
2022-09-30T07:34:40.020Z,91.90
2022-09-30T07:35:40.005Z,92.36
2022-09-30T07:36:40.010Z,92.57
2022-09-30T07:37:40.002Z,93.49
2022-09-30T07:38:39.966Z,92.32
2022-09-30T07:39:39.992Z,92.72
2022-09-30T07:40:39.950Z,93.87
2022-09-30T07:41:39.965Z,93.66
2022-09-30T07:42:39.924Z,92.93
2022-09-30T07:43:39.926Z,93.14
2022-09-30T07:44:39.913Z,93.97
2022-09-30T07:45:39.946Z,94.54
2022-09-30T07:46:39.884Z,93.30
2022-09-30T07:47:39.929Z,93.37
2022-09-30T07:48:39.862Z,91.20
2022-09-30T07:49:39.873Z,91.30
2022-09-30T07:50:46.673Z,90.06
2022-09-30T07:51:39.864Z,91.75
2022-09-30T07:52:39.841Z,92.85
2022-09-30T07:53:39.819Z,92.33
2022-09-30T07:54:43.298Z,92.54
2022-09-30T07:55:39.809Z,91.71
2022-09-30T07:57:39.774Z,89.34
2022-09-30T07:58:39.772Z,89.86
2022-09-30T07:59:39.737Z,90.62
2022-09-30T08:00:42.632Z,91.30
2022-09-30T08:01:39.777Z,92.02
2022-09-30T08:02:39.731Z,91.71
2022-09-30T08:03:39.704Z,88.92
2022-09-30T08:04:43.657Z,90.06
2022-09-30T08:05:39.687Z,90.37
2022-09-30T08:06:39.667Z,87.17
2022-09-30T08:07:39.657Z,87.89
2022-09-30T08:08:39.641Z,88.51
2022-09-30T08:09:39.720Z,88.41
2022-09-30T08:10:39.668Z,87.99
2022-09-30T08:11:39.608Z,88.20
2022-09-30T08:12:39.597Z,88.10
2022-09-30T08:13:39.595Z,88.31
2022-09-30T08:14:39.680Z,88.71
2022-09-30T08:15:39.556Z,88.89
2022-09-30T08:16:39.613Z,87.85
2022-09-30T08:17:39.563Z,86.30
2022-09-30T08:18:39.536Z,88.26
2022-09-30T08:19:39.553Z,88.89
2022-09-30T08:20:39.519Z,88.22
2022-09-30T08:21:39.487Z,87.81
2022-09-30T08:22:39.536Z,87.29
2022-09-30T08:23:39.467Z,86.78
2022-09-30T08:24:39.445Z,85.02
2022-09-30T08:25:39.459Z,84.92
2022-09-30T08:26:39.473Z,86.57
2022-09-30T08:27:39.446Z,85.78
2022-09-30T08:28:39.519Z,86.71
2022-09-30T08:29:57.390Z,88.16
2022-09-30T08:30:39.388Z,85.37
2022-09-30T08:31:39.481Z,85.89
2022-09-30T08:32:39.368Z,86.41
2022-09-30T08:33:39.368Z,88.26
2022-09-30T08:34:39.407Z,88.32
2022-09-30T08:35:39.337Z,88.12
2022-09-30T08:36:39.323Z,86.63
2022-09-30T08:37:39.408Z,85.71
2022-09-30T08:38:39.308Z,86.53
2022-09-30T08:39:39.313Z,85.71
2022-09-30T08:40:39.285Z,85.67
2022-09-30T08:41:39.284Z,85.67
2022-09-30T08:42:41.603Z,82.98
2022-09-30T08:43:39.287Z,84.94
2022-09-30T08:44:39.231Z,85.22
2022-09-30T08:45:39.298Z,83.05
2022-09-30T08:46:39.218Z,83.67
2022-09-30T08:47:39.222Z,85.11
2022-09-30T08:48:39.184Z,85.07
2022-09-30T08:49:39.222Z,84.56
2022-09-30T08:50:39.192Z,83.63
2022-09-30T08:51:39.168Z,81.61
2022-09-30T08:52:49.053Z,82.74
2022-09-30T08:53:39.149Z,83.56
2022-09-30T08:54:40.271Z,81.96
2022-09-30T08:55:39.103Z,82.47
2022-09-30T08:56:39.091Z,82.68
2022-09-30T08:57:41.048Z,83.29
2022-09-30T08:58:39.158Z,83.56
2022-09-30T08:59:39.061Z,84.29
2022-09-30T09:00:39.079Z,83.56
2022-09-30T09:01:39.079Z,80.16
2022-09-30T09:02:39.065Z,80.62
2022-09-30T09:03:39.029Z,83.19
2022-09-30T09:05:39.017Z,79.90
2022-09-30T09:06:38.978Z,79.86
2022-09-30T09:07:38.994Z,78.31
2022-09-30T09:08:38.969Z,77.73
2022-09-30T09:09:38.985Z,76.49
2022-09-30T09:10:38.973Z,78.14
2022-09-30T09:11:42.732Z,78.49
2022-09-30T09:12:38.941Z,80.51
2022-09-30T09:13:38.916Z,77.97
2022-09-30T09:14:38.906Z,80.93
2022-09-30T09:15:38.965Z,79.31
2022-09-30T09:16:39.019Z,81.23
2022-09-30T09:17:38.856Z,79.79
2022-09-30T09:18:38.870Z,77.94
2022-09-30T09:19:38.838Z,79.34
2022-09-30T09:20:38.863Z,77.80
2022-09-30T09:21:38.840Z,78.72
2022-09-30T09:22:38.802Z,78.00
2022-09-30T09:23:38.800Z,79.14
2022-09-30T09:24:38.780Z,80.37
2022-09-30T09:25:38.774Z,80.33
2022-09-30T09:26:38.786Z,77.86
2022-09-30T09:27:38.749Z,79.00
2022-09-30T09:28:38.760Z,78.89
2022-09-30T09:29:38.724Z,79.30
2022-09-30T09:30:38.726Z,79.82
2022-09-30T09:31:38.810Z,79.58
2022-09-30T09:32:38.721Z,77.66
2022-09-30T09:33:38.684Z,78.93
2022-09-30T09:34:40.276Z,79.48
2022-09-30T09:35:38.644Z,81.96
2022-09-30T09:36:38.643Z,80.10
2022-09-30T09:37:38.673Z,81.40
2022-09-30T09:38:38.626Z,80.89
2022-09-30T09:39:38.627Z,81.20
2022-09-30T09:40:38.610Z,81.05
2022-09-30T09:41:38.622Z,80.33
2022-09-30T09:43:38.575Z,79.03
2022-09-30T09:44:38.600Z,80.27
2022-09-30T09:45:38.600Z,81.51
2022-09-30T09:46:38.545Z,80.79
2022-09-30T09:47:38.523Z,80.27
2022-09-30T09:48:38.535Z,81.92
2022-09-30T09:49:41.572Z,81.37
2022-09-30T09:50:38.501Z,80.33
2022-09-30T09:51:38.495Z,80.81
2022-09-30T09:52:38.475Z,80.30
2022-09-30T09:53:38.464Z,78.55
2022-09-30T09:54:38.438Z,78.14
2022-09-30T09:55:38.466Z,80.16
2022-09-30T09:56:38.453Z,79.95
2022-09-30T09:57:38.415Z,78.06
2022-09-30T09:58:38.431Z,78.99
2022-09-30T09:59:38.393Z,76.83
2022-09-30T10:00:38.422Z,75.59
2022-09-30T10:01:38.437Z,76.83
2022-09-30T10:02:38.387Z,74.46
2022-09-30T10:03:38.358Z,75.32
2022-09-30T10:04:39.184Z,75.42
2022-09-30T10:05:38.318Z,74.63
2022-09-30T10:06:38.382Z,74.40
2022-09-30T10:07:44.868Z,74.33
2022-09-30T10:08:38.317Z,78.03
2022-09-30T10:09:38.347Z,74.84
2022-09-30T10:10:38.277Z,75.52
2022-09-30T10:11:38.285Z,74.63
2022-09-30T10:12:38.251Z,75.12
2022-09-30T10:13:38.265Z,75.73
2022-09-30T10:14:38.220Z,74.19
2022-09-30T10:15:38.304Z,75.52
2022-09-30T10:16:38.200Z,74.91
2022-09-30T10:17:38.196Z,75.29
2022-09-30T10:18:38.184Z,75.01
2022-09-30T10:19:38.175Z,74.19
2022-09-30T10:20:38.217Z,76.86
2022-09-30T10:21:38.184Z,74.98
2022-09-30T10:22:38.145Z,73.64
2022-09-30T10:23:38.175Z,74.46
2022-09-30T10:24:38.142Z,74.87
2022-09-30T10:25:38.109Z,73.54
2022-09-30T10:26:38.112Z,75.08
2022-09-30T10:27:38.099Z,74.67
2022-09-30T10:28:38.087Z,74.77
2022-09-30T10:29:38.078Z,73.44
2022-09-30T10:30:38.049Z,74.26
2022-09-30T10:31:38.112Z,74.53
2022-09-30T10:32:38.046Z,74.43
2022-09-30T10:33:38.021Z,74.33
2022-09-30T10:34:38.020Z,73.61
2022-09-30T10:35:38.002Z,74.63
2022-09-30T10:36:38.020Z,71.45
2022-09-30T10:37:37.983Z,74.36
2022-09-30T10:38:37.983Z,73.64
2022-09-30T10:39:37.949Z,72.72
2022-09-30T10:40:37.922Z,74.05
2022-09-30T10:41:37.971Z,71.37
2022-09-30T10:42:37.949Z,73.44
2022-09-30T10:43:37.985Z,74.08
2022-09-30T10:44:37.914Z,71.72
2022-09-30T10:45:37.925Z,72.64
2022-09-30T10:46:37.953Z,72.44
2022-09-30T10:47:37.891Z,74.60
2022-09-30T10:48:37.869Z,73.57
2022-09-30T10:49:37.872Z,73.54
2022-09-30T10:50:37.827Z,72.51
2022-09-30T10:51:37.819Z,70.79
2022-09-30T10:52:37.794Z,74.36
2022-09-30T10:53:37.793Z,72.51
2022-09-30T10:54:37.786Z,71.58
2022-09-30T10:55:37.835Z,70.25
2022-09-30T10:56:37.791Z,70.66
2022-09-30T10:57:37.762Z,68.74
2022-09-30T10:58:37.737Z,69.84
2022-09-30T10:59:37.766Z,71.58
2022-09-30T11:00:37.723Z,72.30
2022-09-30T11:01:37.757Z,71.48
2022-09-30T11:02:37.714Z,70.25
2022-09-30T11:03:37.828Z,71.86
2022-09-30T11:04:37.698Z,70.52
2022-09-30T11:05:37.665Z,71.79
2022-09-30T11:06:37.661Z,72.20
2022-09-30T11:07:37.653Z,72.03
2022-09-30T11:08:37.620Z,72.47
2022-09-30T11:09:37.652Z,73.30
2022-09-30T11:10:37.609Z,71.62
2022-09-30T11:11:37.609Z,71.62
2022-09-30T11:12:37.577Z,72.85
2022-09-30T11:13:37.570Z,71.89
2022-09-30T11:14:37.573Z,73.44
2022-09-30T11:15:37.560Z,71.28
2022-09-30T11:16:37.603Z,71.28
2022-09-30T11:17:37.519Z,71.69
2022-09-30T11:18:37.508Z,72.92
2022-09-30T11:19:37.559Z,71.07
2022-09-30T11:20:37.482Z,71.89
2022-09-30T11:21:37.565Z,71.75
2022-09-30T11:22:37.480Z,71.24
2022-09-30T11:23:37.461Z,72.17
2022-09-30T11:24:37.437Z,70.11
2022-09-30T11:25:37.464Z,70.62
2022-09-30T11:26:37.431Z,70.35
2022-09-30T11:27:37.430Z,70.56
2022-09-30T11:28:37.423Z,72.81
2022-09-30T11:29:37.431Z,71.37
2022-09-30T11:30:37.414Z,72.00
2022-09-30T11:31:37.500Z,73.13
2022-09-30T11:32:37.359Z,70.86
2022-09-30T11:33:37.352Z,72.00
2022-09-30T11:34:37.346Z,71.17
2022-09-30T11:35:37.333Z,71.17
2022-09-30T11:36:42.160Z,71.79
2022-09-30T11:37:37.348Z,71.58
2022-09-30T11:38:37.295Z,71.48
2022-09-30T11:39:37.317Z,72.96
2022-09-30T11:40:37.280Z,72.41
2022-09-30T11:41:37.268Z,72.61
2022-09-30T11:42:37.290Z,73.33
2022-09-30T11:43:37.233Z,72.92
2022-09-30T11:44:37.234Z,71.37
2022-09-30T11:45:37.252Z,70.97
2022-09-30T11:46:37.236Z,70.86
2022-09-30T11:47:37.208Z,70.66
2022-09-30T11:48:37.181Z,72.00
2022-09-30T11:49:37.166Z,72.30
2022-09-30T11:50:37.183Z,70.45
2022-09-30T11:51:37.152Z,72.47
2022-09-30T11:52:37.200Z,71.55
2022-09-30T11:53:37.141Z,69.67
2022-09-30T11:54:37.107Z,71.72
2022-09-30T11:55:37.105Z,71.72
2022-09-30T11:56:37.125Z,71.48
2022-09-30T11:57:37.079Z,70.36
2022-09-30T11:58:41.531Z,69.64
2022-09-30T11:59:37.053Z,69.84
2022-09-30T12:00:37.034Z,70.36
2022-09-30T12:01:37.108Z,68.74
2022-09-30T12:02:37.810Z,68.23
2022-09-30T12:03:37.025Z,70.08
2022-09-30T12:04:37.011Z,69.15
2022-09-30T12:05:36.985Z,69.87
2022-09-30T12:06:37.033Z,68.98
2022-09-30T12:07:36.972Z,70.11
2022-09-30T12:08:36.957Z,69.98
2022-09-30T12:09:36.945Z,69.36
2022-09-30T12:10:36.939Z,69.90
2022-09-30T12:11:36.930Z,70.62
2022-09-30T12:12:36.936Z,71.93
2022-09-30T12:13:36.899Z,71.41
2022-09-30T12:14:36.892Z,71.72
2022-09-30T12:15:36.870Z,70.79
2022-09-30T12:16:37.017Z,70.21
2022-09-30T12:17:36.878Z,69.94
2022-09-30T12:18:36.858Z,70.25
2022-09-30T12:19:36.846Z,71.58
2022-09-30T12:20:36.826Z,71.89
2022-09-30T12:21:36.836Z,71.07
2022-09-30T12:22:36.794Z,71.96
2022-09-30T12:23:36.929Z,71.24
2022-09-30T12:24:36.922Z,70.73
2022-09-30T12:25:37.899Z,71.14
2022-09-30T12:26:36.746Z,70.52
2022-09-30T12:27:36.733Z,70.94
2022-09-30T12:28:36.732Z,70.73
2022-09-30T12:29:36.737Z,69.49
2022-09-30T12:30:36.756Z,70.42
2022-09-30T12:31:36.778Z,70.32
2022-09-30T12:32:36.727Z,70.42
2022-09-30T12:33:36.686Z,69.49
2022-09-30T12:34:36.661Z,70.83
2022-09-30T12:35:36.678Z,71.86
2022-09-30T12:36:36.643Z,70.94
2022-09-30T12:37:36.636Z,70.42
2022-09-30T12:38:36.638Z,70.62
2022-09-30T12:39:36.604Z,71.86
2022-09-30T12:40:36.625Z,72.20
2022-09-30T12:41:36.588Z,71.58
2022-09-30T12:42:36.640Z,70.56
2022-09-30T12:43:36.574Z,70.94
2022-09-30T12:44:36.557Z,70.94
2022-09-30T12:45:36.656Z,71.86
2022-09-30T12:46:36.531Z,69.49
2022-09-30T12:47:36.529Z,70.52
2022-09-30T12:48:36.504Z,69.77
2022-09-30T12:49:36.520Z,69.36
2022-09-30T12:50:36.528Z,69.36
2022-09-30T12:51:36.516Z,69.87
2022-09-30T12:52:36.482Z,69.77
2022-09-30T12:53:36.468Z,70.32
2022-09-30T12:54:36.473Z,70.21
2022-09-30T12:55:36.439Z,71.24